createdAt,value
2018-03-21T00:01:06.871Z,4.47
2018-03-21T00:03:33.600Z,4.47
2018-03-21T00:06:00.305Z,4.53
2018-03-21T00:08:27.041Z,3.77
2018-03-21T00:10:53.752Z,3.90
2018-03-21T00:13:20.451Z,3.83
2018-03-21T00:15:47.190Z,3.87
2018-03-21T00:18:13.898Z,3.73
2018-03-21T00:20:40.605Z,4.13
2018-03-21T00:23:07.334Z,4.37
2018-03-21T00:25:34.202Z,4.07
2018-03-21T00:28:00.912Z,4.20
2018-03-21T00:30:27.684Z,3.40
2018-03-21T00:32:54.467Z,3.97
2018-03-21T00:35:21.245Z,4.17
2018-03-21T00:37:47.998Z,3.50
2018-03-21T00:40:14.701Z,3.53
2018-03-21T00:42:41.416Z,4.67
2018-03-21T00:45:08.139Z,3.67
2018-03-21T00:47:35.023Z,3.77
2018-03-21T00:50:01.728Z,3.70
2018-03-21T00:52:28.550Z,3.67
2018-03-21T00:54:55.268Z,3.10
2018-03-21T00:57:22.014Z,2.87
2018-03-21T00:59:48.742Z,3.40
2018-03-21T01:02:15.517Z,2.83
2018-03-21T01:04:42.234Z,3.43
2018-03-21T01:07:08.976Z,3.70
2018-03-21T01:09:35.693Z,3.70
2018-03-21T01:12:02.406Z,3.73
2018-03-21T01:14:29.146Z,4.00
2018-03-21T01:16:55.865Z,3.17
2018-03-21T01:19:22.573Z,3.43
2018-03-21T01:21:49.304Z,2.43
2018-03-21T01:24:16.011Z,2.70
2018-03-21T01:26:42.715Z,2.73
2018-03-21T01:29:09.453Z,2.43
2018-03-21T01:31:36.153Z,2.10
2018-03-21T01:34:02.851Z,2.70
2018-03-21T01:36:29.593Z,2.30
2018-03-21T01:38:56.305Z,2.40
2018-03-21T01:41:23.002Z,2.37
2018-03-21T01:43:49.737Z,2.57
2018-03-21T01:46:16.433Z,2.13
2018-03-21T01:48:43.138Z,1.83
2018-03-21T01:51:09.867Z,2.20
2018-03-21T01:53:36.574Z,2.20
2018-03-21T01:56:03.285Z,2.00
2018-03-21T01:58:30.029Z,1.90
2018-03-21T02:00:56.729Z,2.00
2018-03-21T02:03:23.430Z,1.93
2018-03-21T02:05:50.169Z,1.80
2018-03-21T02:08:16.879Z,2.10
2018-03-21T02:10:43.578Z,1.70
2018-03-21T02:13:10.328Z,1.87
2018-03-21T02:15:37.026Z,1.80
2018-03-21T02:18:03.719Z,2.00
2018-03-21T02:20:30.444Z,1.70
2018-03-21T02:22:57.142Z,1.50
2018-03-21T02:25:23.837Z,1.50
2018-03-21T02:27:50.565Z,1.50
2018-03-21T02:30:17.271Z,1.80
2018-03-21T02:32:43.975Z,1.50
2018-03-21T02:35:10.702Z,1.50
2018-03-21T02:37:37.426Z,1.43
2018-03-21T02:40:04.139Z,1.40
2018-03-21T02:42:30.873Z,1.30
2018-03-21T02:44:57.601Z,1.50
2018-03-21T02:47:24.298Z,1.50
2018-03-21T02:49:51.038Z,1.57
2018-03-21T02:52:17.741Z,1.43
2018-03-21T02:54:44.471Z,1.50
2018-03-21T02:57:11.209Z,1.40
2018-03-21T02:59:37.930Z,1.40
2018-03-21T03:02:04.638Z,1.20
2018-03-21T03:04:31.376Z,1.20
2018-03-21T03:06:58.100Z,1.27
2018-03-21T03:09:24.808Z,1.30
2018-03-21T03:11:51.556Z,1.50
2018-03-21T03:14:18.257Z,1.30
2018-03-21T03:16:44.968Z,1.33
2018-03-21T03:19:11.709Z,1.40
2018-03-21T03:21:38.425Z,1.30
2018-03-21T03:24:05.131Z,1.30
2018-03-21T03:26:31.864Z,1.37
2018-03-21T03:28:58.561Z,1.43
2018-03-21T03:31:25.283Z,1.33
2018-03-21T03:33:52.018Z,1.40
2018-03-21T03:36:18.720Z,1.10
2018-03-21T03:38:45.425Z,1.20
2018-03-21T03:41:12.149Z,1.33
2018-03-21T03:43:38.855Z,1.20
2018-03-21T03:46:05.580Z,1.30
2018-03-21T03:48:32.309Z,1.20
2018-03-21T03:50:59.033Z,1.47
2018-03-21T03:53:25.737Z,1.20
2018-03-21T03:55:52.472Z,1.20
2018-03-21T03:58:19.185Z,1.33
2018-03-21T04:00:45.889Z,1.20
2018-03-21T04:03:12.623Z,1.23
2018-03-21T04:05:39.345Z,1.40
2018-03-21T04:08:06.049Z,1.30
2018-03-21T04:10:32.779Z,1.20
2018-03-21T04:12:59.481Z,1.10
2018-03-21T04:15:26.194Z,1.30
2018-03-21T04:17:52.923Z,1.20
2018-03-21T04:20:19.633Z,1.17
2018-03-21T04:22:46.338Z,1.20
2018-03-21T04:25:13.065Z,1.00
2018-03-21T04:27:39.763Z,1.00
2018-03-21T04:30:06.475Z,1.10
2018-03-21T04:32:33.205Z,1.50
2018-03-21T04:34:59.917Z,1.30
2018-03-21T04:37:26.624Z,1.20
2018-03-21T04:39:53.361Z,1.30
2018-03-21T04:42:20.087Z,1.00
2018-03-21T04:44:46.825Z,1.30
2018-03-21T04:47:13.563Z,1.10
2018-03-21T04:49:40.269Z,1.43
2018-03-21T04:52:06.977Z,1.27
2018-03-21T04:54:33.828Z,1.37
2018-03-21T04:57:00.536Z,1.20
2018-03-21T04:59:27.237Z,1.13
2018-03-21T05:01:53.975Z,1.37
2018-03-21T05:04:20.710Z,1.37
2018-03-21T05:06:47.425Z,1.30
2018-03-21T05:09:14.155Z,1.27
2018-03-21T05:11:40.902Z,1.10
2018-03-21T05:14:07.607Z,1.40
2018-03-21T05:16:34.352Z,1.30
2018-03-21T05:19:01.069Z,1.40
2018-03-21T05:21:27.804Z,1.60
2018-03-21T05:23:54.537Z,1.20
2018-03-21T05:26:21.415Z,1.10
2018-03-21T05:28:48.122Z,1.33
2018-03-21T05:31:14.857Z,1.20
2018-03-21T05:33:41.567Z,1.20
2018-03-21T05:36:08.286Z,1.20
2018-03-21T05:38:35.021Z,1.13
2018-03-21T05:41:01.736Z,1.30
2018-03-21T05:43:28.437Z,1.00
2018-03-21T05:45:55.178Z,1.23
2018-03-21T05:48:21.884Z,1.40
2018-03-21T05:50:48.596Z,1.43
2018-03-21T05:53:15.343Z,1.10
2018-03-21T05:55:42.044Z,1.40
2018-03-21T05:58:08.744Z,1.30
2018-03-21T06:00:35.482Z,1.23
2018-03-21T06:03:02.189Z,1.30
2018-03-21T06:05:28.901Z,1.40
2018-03-21T06:07:55.639Z,1.30
2018-03-21T06:10:22.342Z,1.53
2018-03-21T06:12:49.062Z,1.40
2018-03-21T06:15:17.129Z,1.23
2018-03-21T06:17:43.965Z,1.70
2018-03-21T06:20:10.677Z,1.50
2018-03-21T06:22:37.410Z,1.23
2018-03-21T06:25:04.112Z,1.43
2018-03-21T06:27:30.813Z,1.37
2018-03-21T06:29:57.581Z,1.30
2018-03-21T06:32:24.287Z,1.37
2018-03-21T06:34:50.989Z,1.70
2018-03-21T06:37:17.729Z,1.30
2018-03-21T06:39:44.932Z,1.50
2018-03-21T06:42:11.629Z,1.57
2018-03-21T06:44:38.421Z,1.47
2018-03-21T06:47:05.099Z,1.50
2018-03-21T06:49:31.810Z,1.30
2018-03-21T06:51:58.549Z,1.37
2018-03-21T06:54:25.371Z,1.10
2018-03-21T06:56:52.082Z,1.30
2018-03-21T06:59:19.114Z,1.27
2018-03-21T07:01:45.825Z,1.27
2018-03-21T07:04:12.521Z,1.30
2018-03-21T07:06:39.259Z,1.57
2018-03-21T07:09:05.965Z,1.73
2018-03-21T07:11:32.671Z,1.17
2018-03-21T07:14:05.100Z,1.30
2018-03-21T07:16:51.509Z,1.47
2018-03-21T07:19:18.241Z,1.27
2018-03-21T07:21:45.143Z,1.10
2018-03-21T07:24:11.836Z,1.20
2018-03-21T07:26:38.564Z,1.10
2018-03-21T07:29:05.277Z,1.10
2018-03-21T07:31:31.973Z,1.40
2018-03-21T07:33:58.706Z,1.30
2018-03-21T07:36:25.406Z,1.70
2018-03-21T07:38:52.109Z,1.70
2018-03-21T07:41:18.842Z,1.20
2018-03-21T07:43:45.547Z,1.30
2018-03-21T07:46:12.241Z,1.10
2018-03-21T07:48:38.966Z,1.50
2018-03-21T07:51:05.673Z,1.30
2018-03-21T07:53:32.373Z,1.20
2018-03-21T07:55:59.104Z,1.43
2018-03-21T07:58:25.822Z,1.20
2018-03-21T08:00:52.534Z,1.00
2018-03-21T08:03:19.270Z,0.80
2018-03-21T08:05:45.973Z,1.17
2018-03-21T08:08:12.693Z,1.70
2018-03-21T08:10:39.426Z,1.30
2018-03-21T08:13:06.127Z,1.33
2018-03-21T08:15:32.852Z,1.03
2018-03-21T08:17:59.596Z,1.20
2018-03-21T08:20:26.304Z,1.37
2018-03-21T08:22:53.010Z,1.17
2018-03-21T08:25:19.740Z,0.87
2018-03-21T08:27:46.446Z,1.10
2018-03-21T08:30:13.157Z,1.07
2018-03-21T08:32:39.901Z,1.10
2018-03-21T08:35:06.602Z,1.13
2018-03-21T08:37:33.306Z,1.00
2018-03-21T08:40:00.175Z,1.00
2018-03-21T08:42:26.873Z,1.00
2018-03-21T08:44:53.571Z,0.97
2018-03-21T08:47:20.301Z,1.10
2018-03-21T08:49:47.003Z,1.00
2018-03-21T08:52:13.704Z,1.07
2018-03-21T08:54:40.438Z,1.00
2018-03-21T08:57:07.136Z,1.07
2018-03-21T08:59:33.850Z,0.97
2018-03-21T09:02:00.587Z,1.00
2018-03-21T09:04:27.290Z,1.13
2018-03-21T09:06:54.001Z,1.00
2018-03-21T09:09:20.729Z,0.93
2018-03-21T09:11:47.429Z,0.90
2018-03-21T09:14:14.125Z,1.10
2018-03-21T09:16:40.862Z,1.07
2018-03-21T09:19:07.561Z,2.10
2018-03-21T09:21:34.265Z,1.50
2018-03-21T09:24:00.993Z,1.00
2018-03-21T09:26:27.705Z,1.00
2018-03-21T09:28:54.410Z,0.77
2018-03-21T09:31:21.150Z,1.03
2018-03-21T09:33:47.851Z,0.87
2018-03-21T09:36:14.558Z,1.10
2018-03-21T09:38:41.286Z,1.00
2018-03-21T09:41:07.984Z,1.37
2018-03-21T09:43:34.694Z,0.90
2018-03-21T09:46:01.417Z,1.07
2018-03-21T09:48:28.151Z,0.77
2018-03-21T09:50:54.878Z,0.90
2018-03-21T09:53:21.608Z,0.90
2018-03-21T09:55:48.360Z,1.17
2018-03-21T09:58:15.041Z,1.20
2018-03-21T10:00:41.764Z,0.90
2018-03-21T10:03:08.497Z,0.80
2018-03-21T10:05:35.209Z,1.00
2018-03-21T10:08:01.941Z,0.80
2018-03-21T10:10:28.645Z,1.67
2018-03-21T10:12:55.344Z,1.10
2018-03-21T10:15:22.073Z,0.90
2018-03-21T10:17:48.768Z,0.90
2018-03-21T10:20:15.467Z,0.90
2018-03-21T10:22:42.202Z,1.00
2018-03-21T10:25:08.898Z,1.00
2018-03-21T10:27:35.595Z,0.80
2018-03-21T10:30:02.322Z,1.20
2018-03-21T10:32:29.099Z,0.93
2018-03-21T10:34:55.811Z,0.63
2018-03-21T10:37:22.551Z,0.90
2018-03-21T10:39:49.265Z,1.00
2018-03-21T10:42:16.250Z,0.80
2018-03-21T10:44:42.988Z,0.77
2018-03-21T10:47:09.685Z,0.83
2018-03-21T10:49:36.385Z,1.10
2018-03-21T10:52:03.105Z,1.07
2018-03-21T10:54:29.813Z,0.80
2018-03-21T10:56:56.533Z,1.10
2018-03-21T10:59:23.256Z,1.10
2018-03-21T11:01:55.610Z,1.70
2018-03-21T11:04:22.305Z,0.83
2018-03-21T11:06:49.025Z,1.10
2018-03-21T11:09:15.729Z,1.00
2018-03-21T11:11:42.484Z,0.90
2018-03-21T11:14:09.243Z,1.10
2018-03-21T11:16:35.945Z,0.90
2018-03-21T11:19:02.884Z,1.07
2018-03-21T11:21:29.625Z,0.90
2018-03-21T11:23:56.330Z,0.80
2018-03-21T11:26:23.025Z,1.23
2018-03-21T11:28:49.742Z,0.93
2018-03-21T11:31:16.440Z,1.20
2018-03-21T11:33:43.141Z,1.10
2018-03-21T11:36:09.892Z,1.77
2018-03-21T11:38:36.593Z,1.37
2018-03-21T11:41:03.295Z,1.00
2018-03-21T11:43:30.021Z,1.10
2018-03-21T11:45:56.721Z,1.07
2018-03-21T11:48:23.426Z,1.00
2018-03-21T11:50:50.155Z,1.00
2018-03-21T11:53:16.848Z,1.10
2018-03-21T11:55:43.547Z,1.10
2018-03-21T11:58:10.272Z,1.00
2018-03-21T12:00:36.982Z,1.07
2018-03-21T12:03:03.685Z,1.03
2018-03-21T12:05:30.412Z,1.00
2018-03-21T12:07:57.113Z,0.90
2018-03-21T12:10:23.814Z,0.70
2018-03-21T12:12:50.547Z,0.80
2018-03-21T12:15:17.251Z,1.20
2018-03-21T12:17:43.949Z,1.07
2018-03-21T12:20:10.670Z,1.07
2018-03-21T12:22:37.377Z,0.73
2018-03-21T12:25:04.084Z,1.13
2018-03-21T12:27:30.829Z,0.77
2018-03-21T12:29:57.538Z,0.70
2018-03-21T12:32:24.240Z,1.00
2018-03-21T12:34:50.970Z,1.00
2018-03-21T12:37:17.749Z,1.00
2018-03-21T12:39:44.450Z,1.00
2018-03-21T12:42:11.181Z,0.90
2018-03-21T12:44:37.900Z,1.00
2018-03-21T12:47:04.609Z,0.90
2018-03-21T12:49:31.332Z,0.67
2018-03-21T12:51:58.904Z,0.90
2018-03-21T12:54:25.617Z,0.87
2018-03-21T12:56:52.580Z,0.90
2018-03-21T12:59:19.277Z,0.70
2018-03-21T13:01:45.987Z,0.90
2018-03-21T13:04:12.732Z,0.80
2018-03-21T13:06:39.436Z,0.93
2018-03-21T13:09:06.146Z,0.80
2018-03-21T13:11:32.882Z,0.70
2018-03-21T13:13:59.593Z,0.97
2018-03-21T13:16:26.396Z,0.90
2018-03-21T13:18:53.197Z,1.80
2018-03-21T13:21:19.917Z,2.50
2018-03-21T13:23:46.629Z,1.00
2018-03-21T13:26:13.359Z,0.80
2018-03-21T13:28:40.085Z,1.00
2018-03-21T13:31:06.786Z,1.00
2018-03-21T13:33:33.528Z,1.70
2018-03-21T13:36:00.235Z,1.10
2018-03-21T13:38:26.938Z,0.83
2018-03-21T13:40:53.678Z,0.90
2018-03-21T13:43:20.377Z,0.97
2018-03-21T13:45:47.085Z,1.43
2018-03-21T13:48:13.816Z,0.90
2018-03-21T13:50:40.524Z,1.00
2018-03-21T13:53:07.394Z,0.77
2018-03-21T13:55:34.126Z,0.97
2018-03-21T13:58:00.845Z,0.90
2018-03-21T14:00:27.544Z,0.73
2018-03-21T14:02:54.277Z,0.90
2018-03-21T14:05:20.983Z,0.90
2018-03-21T14:07:47.689Z,3.60
2018-03-21T14:10:14.433Z,2.47
2018-03-21T14:12:41.143Z,3.43
2018-03-21T14:15:07.856Z,2.60
2018-03-21T14:17:34.589Z,5.23
2018-03-21T14:20:01.292Z,1.50
2018-03-21T14:22:28.021Z,3.67
2018-03-21T14:24:54.761Z,1.00
2018-03-21T14:27:21.464Z,1.13
2018-03-21T14:29:48.194Z,0.80
2018-03-21T14:32:14.917Z,1.13
2018-03-21T14:34:41.614Z,1.07
2018-03-21T14:37:08.310Z,1.03
2018-03-21T14:39:35.033Z,0.77
2018-03-21T14:42:01.733Z,1.00
2018-03-21T14:44:28.449Z,0.80
2018-03-21T14:46:55.187Z,0.83
2018-03-21T14:49:21.929Z,0.90
2018-03-21T14:51:48.652Z,0.70
2018-03-21T14:54:15.358Z,1.00
2018-03-21T14:56:42.107Z,1.00
2018-03-21T14:59:08.805Z,0.87
2018-03-21T15:01:35.501Z,0.93
2018-03-21T15:04:02.239Z,0.90
2018-03-21T15:06:28.954Z,0.70
2018-03-21T15:08:55.661Z,0.80
2018-03-21T15:11:22.435Z,0.80
2018-03-21T15:13:49.145Z,0.93
2018-03-21T15:16:15.849Z,0.63
2018-03-21T15:18:42.582Z,0.70
2018-03-21T15:21:09.299Z,0.87
2018-03-21T15:23:36.005Z,0.60
2018-03-21T15:26:02.729Z,0.90
2018-03-21T15:28:29.484Z,0.77
2018-03-21T15:30:56.172Z,0.80
2018-03-21T15:33:22.900Z,0.97
2018-03-21T15:35:49.607Z,0.80
2018-03-21T15:38:16.396Z,0.63
2018-03-21T15:40:43.121Z,1.30
2018-03-21T15:43:09.826Z,0.90
2018-03-21T15:45:36.524Z,1.00
2018-03-21T15:48:03.251Z,0.80
2018-03-21T15:50:29.953Z,0.90
2018-03-21T15:52:56.657Z,0.90
2018-03-21T15:55:23.403Z,0.90
2018-03-21T15:57:50.109Z,0.70
2018-03-21T16:00:16.804Z,0.80
2018-03-21T16:02:43.541Z,0.90
2018-03-21T16:05:10.481Z,1.00
2018-03-21T16:07:37.173Z,0.80
2018-03-21T16:10:03.902Z,0.87
2018-03-21T16:12:30.625Z,1.23
2018-03-21T16:14:57.329Z,0.70
2018-03-21T16:17:24.080Z,0.70
2018-03-21T16:19:50.784Z,0.80
2018-03-21T16:22:17.485Z,0.90
2018-03-21T16:24:44.225Z,0.90
2018-03-21T16:27:10.933Z,1.10
2018-03-21T16:29:37.632Z,0.90
2018-03-21T16:32:04.466Z,1.00
2018-03-21T16:34:31.183Z,0.90
2018-03-21T16:36:57.904Z,1.13
2018-03-21T16:39:24.635Z,0.90
2018-03-21T16:41:51.338Z,1.00
2018-03-21T16:44:18.032Z,1.27
2018-03-21T16:46:44.761Z,1.00
2018-03-21T16:49:11.463Z,0.90
2018-03-21T16:51:38.171Z,1.00
2018-03-21T16:54:04.996Z,0.80
2018-03-21T16:56:31.686Z,1.03
2018-03-21T16:58:58.403Z,1.00
2018-03-21T17:01:25.135Z,0.80
2018-03-21T17:03:51.833Z,0.77
2018-03-21T17:06:18.540Z,0.70
2018-03-21T17:08:45.268Z,1.20
2018-03-21T17:11:11.999Z,0.97
2018-03-21T17:13:38.698Z,0.97
2018-03-21T17:16:05.422Z,0.97
2018-03-21T17:18:32.129Z,0.90
2018-03-21T17:20:58.833Z,0.90
2018-03-21T17:23:25.569Z,0.90
2018-03-21T17:25:52.265Z,1.17
2018-03-21T17:28:18.981Z,1.10
2018-03-21T17:30:45.714Z,0.93
2018-03-21T17:33:12.415Z,0.80
2018-03-21T17:35:39.114Z,1.13
2018-03-21T17:38:05.841Z,0.93
2018-03-21T17:40:32.547Z,1.30
2018-03-21T17:42:59.249Z,0.90
2018-03-21T17:45:25.973Z,1.17
2018-03-21T17:47:52.672Z,0.70
2018-03-21T17:50:19.381Z,1.07
2018-03-21T17:52:46.113Z,1.00
2018-03-21T17:55:12.875Z,1.13
2018-03-21T17:57:39.581Z,1.20
2018-03-21T18:00:06.318Z,1.10
2018-03-21T18:02:33.017Z,0.97
2018-03-21T18:05:00.179Z,1.13
2018-03-21T18:07:26.967Z,1.00
2018-03-21T18:09:53.665Z,1.10
2018-03-21T18:12:20.365Z,0.87
2018-03-21T18:14:47.102Z,1.03
2018-03-21T18:17:13.805Z,0.90
2018-03-21T18:19:40.507Z,0.90
2018-03-21T18:22:07.256Z,0.87
2018-03-21T18:24:33.972Z,1.10
2018-03-21T18:27:00.753Z,1.20
2018-03-21T18:29:27.469Z,1.00
2018-03-21T18:31:54.209Z,1.10
2018-03-21T18:34:20.926Z,1.00
2018-03-21T18:36:47.670Z,1.20
2018-03-21T18:39:14.377Z,1.00
2018-03-21T18:41:41.091Z,0.80
2018-03-21T18:44:07.823Z,1.13
2018-03-21T18:46:34.524Z,1.03
2018-03-21T18:49:01.257Z,1.20
2018-03-21T18:51:27.997Z,1.00
2018-03-21T18:53:54.705Z,0.90
2018-03-21T18:56:21.408Z,1.50
2018-03-21T18:58:48.161Z,1.30
2018-03-21T19:01:14.869Z,1.23
2018-03-21T19:03:41.593Z,1.07
2018-03-21T19:06:08.353Z,1.00
2018-03-21T19:08:35.057Z,1.43
2018-03-21T19:11:01.770Z,1.20
2018-03-21T19:13:28.799Z,1.10
2018-03-21T19:15:55.507Z,0.90
2018-03-21T19:18:22.240Z,1.00
2018-03-21T19:20:49.009Z,1.00
2018-03-21T19:23:15.703Z,0.90
2018-03-21T19:25:42.413Z,1.10
2018-03-21T19:28:09.150Z,1.17
2018-03-21T19:30:35.849Z,1.23
2018-03-21T19:33:02.548Z,0.93
2018-03-21T19:35:29.277Z,1.00
2018-03-21T19:37:55.983Z,0.90
2018-03-21T19:40:22.689Z,1.00
2018-03-21T19:42:49.417Z,1.00
2018-03-21T19:45:16.117Z,0.93
2018-03-21T19:47:42.855Z,1.10
2018-03-21T19:50:09.585Z,1.00
2018-03-21T19:52:36.294Z,1.00
2018-03-21T19:55:03.003Z,1.07
2018-03-21T19:57:29.733Z,1.20
2018-03-21T19:59:56.446Z,1.20
2018-03-21T20:02:23.149Z,1.10
2018-03-21T20:04:49.884Z,1.27
2018-03-21T20:07:16.589Z,1.10
2018-03-21T20:09:43.295Z,1.40
2018-03-21T20:12:10.030Z,1.10
2018-03-21T20:14:36.776Z,1.30
2018-03-21T20:17:03.489Z,1.27
2018-03-21T20:19:30.225Z,0.93
2018-03-21T20:21:56.925Z,1.10
2018-03-21T20:24:23.641Z,1.20
2018-03-21T20:26:50.376Z,1.20
2018-03-21T20:29:17.081Z,1.40
2018-03-21T20:31:43.792Z,1.10
2018-03-21T20:34:10.517Z,1.27
2018-03-21T20:36:37.300Z,1.10
2018-03-21T20:39:04.010Z,0.97
2018-03-21T20:41:30.721Z,1.10
2018-03-21T20:43:57.474Z,1.00
2018-03-21T20:46:24.190Z,0.90
2018-03-21T20:48:50.906Z,1.00
2018-03-21T20:51:17.693Z,1.20
2018-03-21T20:53:44.421Z,1.20
2018-03-21T20:56:11.125Z,1.00
2018-03-21T20:58:37.853Z,1.33
2018-03-21T21:01:04.568Z,1.40
2018-03-21T21:03:31.291Z,1.63
2018-03-21T21:05:58.042Z,1.20
2018-03-21T21:08:24.753Z,1.40
2018-03-21T21:10:51.473Z,1.10
2018-03-21T21:13:18.214Z,1.10
2018-03-21T21:15:44.913Z,1.30
2018-03-21T21:18:11.621Z,1.37
2018-03-21T21:20:38.356Z,1.10
2018-03-21T21:23:05.057Z,1.20
2018-03-21T21:25:31.763Z,1.10
2018-03-21T21:27:58.518Z,1.20
2018-03-21T21:30:25.270Z,1.17
2018-03-21T21:32:52.038Z,1.30
2018-03-21T21:35:18.774Z,1.10
2018-03-21T21:37:45.469Z,1.40
2018-03-21T21:40:12.179Z,1.20
2018-03-21T21:42:38.920Z,1.30
2018-03-21T21:45:05.683Z,1.50
2018-03-21T21:47:32.382Z,1.20
2018-03-21T21:49:59.148Z,1.33
2018-03-21T21:52:26.071Z,1.30
2018-03-21T21:54:52.777Z,1.20
2018-03-21T21:57:19.521Z,1.30
2018-03-21T21:59:46.229Z,1.17
2018-03-21T22:02:12.933Z,1.03
2018-03-21T22:04:39.674Z,1.10
2018-03-21T22:07:06.393Z,1.30
2018-03-21T22:09:33.097Z,1.40
2018-03-21T22:11:59.824Z,1.53
2018-03-21T22:14:26.590Z,1.47
2018-03-21T22:16:53.573Z,1.30
2018-03-21T22:19:20.293Z,1.50
2018-03-21T22:21:47.263Z,1.40
2018-03-21T22:24:13.964Z,1.40
2018-03-21T22:26:40.947Z,1.30
2018-03-21T22:29:07.648Z,1.50
2018-03-21T22:31:35.141Z,1.57
2018-03-21T22:34:01.881Z,1.10
2018-03-21T22:36:28.584Z,1.40
2018-03-21T22:38:55.276Z,1.23
2018-03-21T22:41:22.008Z,1.30
2018-03-21T22:43:48.730Z,1.30
2018-03-21T22:46:15.437Z,1.63
2018-03-21T22:48:42.216Z,1.33
2018-03-21T22:51:08.916Z,1.33
2018-03-21T22:53:35.623Z,1.37
2018-03-21T22:56:02.348Z,1.33
2018-03-21T22:58:29.046Z,1.20
2018-03-21T23:00:55.741Z,1.20
2018-03-21T23:03:22.465Z,1.40
2018-03-21T23:05:49.171Z,1.30
2018-03-21T23:08:15.889Z,1.40
2018-03-21T23:10:42.621Z,1.50
2018-03-21T23:13:09.325Z,1.20
2018-03-21T23:15:36.028Z,1.73
2018-03-21T23:18:02.761Z,1.40
2018-03-21T23:20:29.457Z,1.57
2018-03-21T23:22:56.165Z,1.30
2018-03-21T23:25:22.891Z,1.53
2018-03-21T23:27:49.597Z,1.50
2018-03-21T23:30:16.303Z,1.47
2018-03-21T23:32:43.033Z,1.40
2018-03-21T23:35:09.738Z,1.30
2018-03-21T23:37:36.445Z,1.50
2018-03-21T23:40:03.194Z,1.30
2018-03-21T23:42:29.908Z,1.30
2018-03-21T23:44:56.610Z,1.30
2018-03-21T23:47:23.340Z,1.33
2018-03-21T23:49:50.047Z,1.60
2018-03-21T23:52:17.044Z,1.20
2018-03-21T23:54:43.786Z,1.30
2018-03-21T23:57:10.502Z,1.60
2018-03-21T23:59:37.208Z,1.20
